Time;durP1;ratioP1;P1;durP2;ratioP2;P2;SDS_P1;SDS_P2;PMS_P1;PMS_P2;Temp;Humidity;BMP_temperature;BMP_pressure;BME280_temperature;BME280_humidity;BME280_pressure;Samples;Min_cycle;Max_cycle;Signal;HPM_P1;HPM_P2
2021/08/04 00:01:57;;;;;;;11.30;5.93;;;589.20;2432.00;;;;;;5055222;28;20048;-78
2021/08/04 00:04:23;;;;;;;10.32;5.65;;;589.40;2432.00;;;;;;5055279;28;20025;-77
2021/08/04 00:06:48;;;;;;;12.38;6.60;;;589.60;2432.00;;;;;;5054946;28;20385;-79
2021/08/04 00:09:14;;;;;;;10.35;6.10;;;589.60;2432.00;;;;;;5073224;28;20018;-78
2021/08/04 00:11:40;;;;;;;11.63;7.15;;;589.50;2432.00;;;;;;5055164;28;20021;-78
2021/08/04 00:14:07;;;;;;;10.50;6.20;;;589.00;2432.00;;;;;;5054661;28;20024;-77
2021/08/04 00:16:33;;;;;;;8.57;5.63;;;588.90;2432.00;;;;;;5055170;28;20021;-77
2021/08/04 00:18:58;;;;;;;12.25;6.82;;;589.00;2432.00;;;;;;5055171;28;20027;-79
2021/08/04 00:21:24;;;;;;;11.25;6.15;;;588.90;2432.00;;;;;;5054829;28;20366;-78
2021/08/04 00:23:50;;;;;;;9.63;5.85;;;588.90;2432.00;;;;;;5055165;28;20029;-79
2021/08/04 00:26:16;;;;;;;9.73;5.60;;;589.00;2432.00;;;;;;5055032;28;20025;-78
2021/08/04 00:28:42;;;;;;;10.10;6.55;;;589.20;2432.00;;;;;;5054829;28;20063;-77
2021/08/04 00:31:08;;;;;;;17.73;7.85;;;589.20;2432.00;;;;;;5057322;28;20372;-79
2021/08/04 00:33:33;;;;;;;7.85;5.55;;;589.30;2432.00;;;;;;5058777;28;20020;-77
2021/08/04 00:35:59;;;;;;;12.55;6.05;;;589.40;2432.00;;;;;;5076241;28;20020;-78
2021/08/04 00:38:25;;;;;;;10.98;6.13;;;589.00;2432.00;;;;;;5058740;28;20107;-79
2021/08/04 00:40:51;;;;;;;8.60;6.18;;;589.00;2432.00;;;;;;5076646;28;20024;-79
2021/08/04 00:43:17;;;;;;;8.82;6.32;;;589.00;2432.00;;;;;;5058293;28;20060;-80
2021/08/04 00:45:43;;;;;;;9.35;5.97;;;588.80;2432.00;;;;;;5058624;28;20055;-79
2021/08/04 00:48:09;;;;;;;11.65;5.90;;;564.10;2432.00;;;;;;5058711;28;20020;-79
2021/08/04 00:50:35;;;;;;;12.32;7.00;;;564.10;2432.00;;;;;;5076282;28;20063;-80
2021/08/04 00:53:23;;;;;;;9.70;6.70;;;564.10;2432.00;;;;;;5058698;28;20035;-78
2021/08/04 00:55:51;;;;;;;9.93;5.70;;;588.80;2432.00;;;;;;5076050;28;20032;-79
2021/08/04 00:58:21;;;;;;;9.45;6.32;;;564.10;2432.00;;;;;;5058082;28;20041;-78
2021/08/04 01:00:52;;;;;;;10.73;5.93;;;588.90;2432.00;;;;;;5058453;28;20032;-79
2021/08/04 01:03:19;;;;;;;9.18;5.72;;;588.80;2432.00;;;;;;5075662;28;20421;-78
2021/08/04 01:05:53;;;;;;;13.40;6.05;;;589.00;2432.00;;;;;;5058303;28;20017;-79
2021/08/04 01:08:24;;;;;;;9.13;5.80;;;589.00;2432.00;;;;;;5075985;28;20020;-78
2021/08/04 01:10:54;;;;;;;10.90;6.15;;;589.10;2432.00;;;;;;5057976;28;20120;-75
2021/08/04 01:13:23;;;;;;;9.02;5.50;;;589.10;2432.00;;;;;;5075883;28;20024;-77
2021/08/04 01:16:17;;;;;;;9.55;6.28;;;589.00;2432.00;;;;;;5058126;28;20056;-76
2021/08/04 01:19:07;;;;;;;11.52;5.65;;;563.90;2432.00;;;;;;5058201;28;20425;-78
2021/08/04 01:21:45;;;;;;;10.48;5.88;;;564.10;2432.00;;;;;;5076372;28;20025;-75
2021/08/04 01:24:19;;;;;;;10.02;6.10;;;564.10;2432.00;;;;;;5075638;28;20028;-77
2021/08/04 01:26:47;;;;;;;10.65;6.20;;;564.00;2432.00;;;;;;5076306;28;20052;-78
2021/08/04 01:29:17;;;;;;;8.68;5.95;;;564.10;2432.00;;;;;;5057852;28;20024;-77
2021/08/04 01:31:47;;;;;;;11.05;6.18;;;564.10;2432.00;;;;;;5057757;28;20025;-77
2021/08/04 01:34:18;;;;;;;9.35;6.22;;;563.40;2432.00;;;;;;5057858;28;20434;-78
2021/08/04 01:36:44;;;;;;;8.50;5.80;;;538.50;2406.40;;;;;;5075651;28;20017;-79
2021/08/04 01:39:10;;;;;;;8.55;6.03;;;538.20;2406.40;;;;;;5075208;28;20024;-78
2021/08/04 01:41:39;;;;;;;10.27;6.43;;;538.50;2406.40;;;;;;5074795;28;20024;-79
2021/08/04 01:44:05;;;;;;;12.25;6.82;;;563.20;2432.00;;;;;;5059312;28;20119;-79
2021/08/04 01:46:31;;;;;;;12.05;7.38;;;563.30;2432.00;;;;;;5057090;28;20029;-79
2021/08/04 01:49:00;;;;;;;10.65;6.45;;;538.10;2406.40;;;;;;5057489;28;20082;-77
2021/08/04 01:51:26;;;;;;;9.90;6.55;;;538.20;2406.40;;;;;;5057081;28;20477;-79
2021/08/04 01:53:52;;;;;;;9.32;6.03;;;538.10;2406.40;;;;;;5057293;28;20020;-75
2021/08/04 01:56:18;;;;;;;11.48;6.28;;;563.50;2432.00;;;;;;5057432;28;20021;-76
2021/08/04 01:58:44;;;;;;;12.80;6.00;;;538.30;2406.40;;;;;;5074470;28;20051;-75
2021/08/04 02:01:10;;;;;;;13.52;6.68;;;538.10;2406.40;;;;;;5074801;28;20039;-78
2021/08/04 02:03:38;;;;;;;10.88;6.22;;;;;;;;;;5074700;28;20101;-76
2021/08/04 02:06:10;;;;;;;10.18;6.72;;;;;;;;;;5074471;28;20024;-76
2021/08/04 02:08:42;;;;;;;8.20;6.35;;;;;;;;;;5057182;28;20453;-77
2021/08/04 02:11:18;;;;;;;12.23;6.18;;;;;;;;;;5057173;28;20389;-76
2021/08/04 02:13:56;;;;;;;16.67;7.03;;;;;;;;;;5074992;28;20458;-76
2021/08/04 02:16:40;;;;;;;11.82;6.55;;;;;;;;;;5057013;28;20024;-76
2021/08/04 02:19:12;;;;;;;11.25;5.97;;;;;;;;;;5056957;28;20367;-78
2021/08/04 02:21:38;;;;;;;;;;;;;;;;;;5074819;28;20067;-77
2021/08/04 02:24:05;;;;;;;13.45;7.35;;;;;;;;;;5056804;28;19912;-77
2021/08/04 02:26:31;;;;;;;12.48;7.22;;;;;;;;;;5056463;28;20071;-78
2021/08/04 02:28:58;;;;;;;12.77;6.57;;;;;;;;;;5056242;28;20111;-76
2021/08/04 02:31:24;;;;;;;13.23;7.10;;;;;;;;;;5073701;28;20020;-76
2021/08/04 02:33:51;;;;;;;15.45;7.45;;;;;;;;;;5055792;28;20051;-76
2021/08/04 02:36:17;;;;;;;15.90;7.60;;;;;;;;;;5056108;28;20039;-78
2021/08/04 02:38:44;;;;;;;13.07;7.70;;;;;;;;;;5056507;28;20024;-76
2021/08/04 02:41:10;;;;;;;12.18;6.75;;;;;;;;;;5056495;28;20020;-78
2021/08/04 02:43:36;;;;;;;16.92;8.23;;;;;;;;;;5056432;28;20025;-79
2021/08/04 02:46:03;;;;;;;12.30;6.85;;;;;;;;;;5056446;28;20099;-76
2021/08/04 02:48:30;;;;;;;10.18;6.03;;;;;;;;;;5056204;28;20020;-78
2021/08/04 02:51:03;;;;;;;12.25;6.30;;;;;;;;;;5074364;28;20039;-79
2021/08/04 02:53:29;;;;;;;9.65;6.68;;;537.70;2406.40;;;;;;5056133;28;20017;-77
2021/08/04 02:55:55;;;;;;;11.55;6.50;;;512.90;2380.80;;;;;;5055994;28;20048;-79
2021/08/04 02:58:21;;;;;;;13.85;7.10;;;537.70;2406.40;;;;;;5055854;28;20057;-78
2021/08/04 03:00:47;;;;;;;9.75;6.32;;;512.80;2380.80;;;;;;5073872;28;20024;-79
2021/08/04 03:03:13;;;;;;;11.23;7.25;;;512.90;2380.80;;;;;;5055456;28;20039;-77
2021/08/04 03:05:39;;;;;;;11.27;6.78;;;512.80;2380.80;;;;;;5056130;28;20021;-80
2021/08/04 03:08:05;;;;;;;10.10;7.03;;;512.70;2380.80;;;;;;5073691;28;20670;-78
2021/08/04 03:10:31;;;;;;;14.35;6.63;;;512.90;2380.80;;;;;;5055754;28;20025;-78
2021/08/04 03:12:57;;;;;;;11.35;6.35;;;512.60;2380.80;;;;;;5055970;28;20031;-78
2021/08/04 03:15:23;;;;;;;11.05;6.78;;;512.60;2380.80;;;;;;5073578;28;20044;-78
2021/08/04 03:17:49;;;;;;;12.27;7.20;;;512.60;2380.80;;;;;;5055958;28;20023;-77
2021/08/04 03:20:14;;;;;;;11.73;7.38;;;512.80;2380.80;;;;;;5055784;28;20449;-77
2021/08/04 03:22:45;;;;;;;12.73;6.97;;;512.80;2380.80;;;;;;5055456;28;20032;-78
2021/08/04 03:25:12;;;;;;;13.80;7.40;;;537.60;2406.40;;;;;;5055890;28;20025;-78
2021/08/04 03:27:38;;;;;;;14.02;6.90;;;537.70;2406.40;;;;;;5055729;28;20020;-79
2021/08/04 03:30:04;;;;;;;10.95;7.47;;;537.60;2406.40;;;;;;5055407;28;20020;-78
2021/08/04 03:32:30;;;;;;;16.23;7.45;;;512.90;2380.80;;;;;;5055735;28;20059;-76
2021/08/04 03:34:56;;;;;;;12.80;7.57;;;512.90;2380.80;;;;;;5055830;28;20052;-78
2021/08/04 03:37:22;;;;;;;13.27;7.10;;;537.60;2406.40;;;;;;5056663;28;20021;-78
2021/08/04 03:39:48;;;;;;;11.77;6.95;;;537.60;2406.40;;;;;;5058262;28;20450;-77
2021/08/04 03:42:16;;;;;;;11.93;7.00;;;537.60;2406.40;;;;;;5059276;28;20021;-78
2021/08/04 03:44:42;;;;;;;11.85;6.07;;;;;;;;;;5062225;28;20108;-77
2021/08/04 03:47:08;;;;;;;15.18;7.45;;;;;;;;;;5065492;28;20074;-78
2021/08/04 03:49:34;;;;;;;11.40;7.22;;;;;;;;;;5067113;28;20074;-79
2021/08/04 03:52:01;;;;;;;14.20;7.10;;;;;;;;;;5085716;28;20020;-77
2021/08/04 03:54:27;;;;;;;13.93;7.13;;;;;;;;;;5068434;28;20035;-79
2021/08/04 03:56:53;;;;;;;12.68;6.90;;;;;;;;;;5067940;28;20036;-77
2021/08/04 03:59:19;;;;;;;11.65;7.60;;;;;;;;;;5067557;28;20466;-79
2021/08/04 04:01:45;;;;;;;13.18;7.53;;;;;;;;;;5067733;28;20080;-78
2021/08/04 04:04:11;;;;;;;13.50;6.88;;;;;;;;;;5086533;28;20044;-76
2021/08/04 04:06:37;;;;;;;13.60;6.72;;;512.30;2380.80;;;;;;5090067;28;20478;-76
2021/08/04 04:09:03;;;;;;;14.38;7.15;;;512.10;2380.80;;;;;;5089367;28;20020;-79
2021/08/04 04:11:30;;;;;;;12.20;7.60;;;;;;;;;;5060059;28;20032;-79
2021/08/04 04:13:56;;;;;;;13.68;6.38;;;;;;;;;;5078180;28;20035;-77
2021/08/04 04:16:22;;;;;;;13.60;7.00;;;;;;;;;;5059788;28;20024;-78
2021/08/04 04:18:49;;;;;;;12.00;6.88;;;;;;;;;;5059218;28;20023;-79
2021/08/04 04:21:15;;;;;;;14.02;7.25;;;487.10;2380.80;;;;;;5059520;28;20362;-79
2021/08/04 04:23:41;;;;;;;11.85;7.10;;;487.10;2380.80;;;;;;5059534;28;20546;-78
2021/08/04 04:26:07;;;;;;;15.98;7.72;;;487.20;2380.80;;;;;;5077281;28;20100;-76
2021/08/04 04:28:33;;;;;;;12.13;6.97;;;512.00;2380.80;;;;;;5059569;28;20027;-78
2021/08/04 04:30:59;;;;;;;14.05;6.85;;;487.30;2380.80;;;;;;5059181;28;20103;-80
2021/08/04 04:33:24;;;;;;;17.45;6.65;;;487.30;2380.80;;;;;;5059170;28;20047;-78
2021/08/04 04:35:51;;;;;;;13.75;6.90;;;512.20;2380.80;;;;;;5076660;28;20496;-78
2021/08/04 04:38:16;;;;;;;14.73;7.28;;;512.10;2380.80;;;;;;5059123;28;20115;-77
2021/08/04 04:40:42;;;;;;;14.30;7.43;;;512.30;2380.80;;;;;;5076581;28;20075;-77
2021/08/04 04:43:08;;;;;;;13.73;6.50;;;512.40;2380.80;;;;;;5058861;28;20040;-77
2021/08/04 04:45:34;;;;;;;16.13;8.40;;;512.40;2380.80;;;;;;5058854;28;20028;-77
2021/08/04 04:47:59;;;;;;;19.45;8.15;;;512.20;2380.80;;;;;;5076523;28;20028;-79
2021/08/04 04:50:25;;;;;;;23.38;7.43;;;512.20;2380.80;;;;;;5042299;28;20112;-79
2021/08/04 04:52:51;;;;;;;16.10;7.50;;;487.30;2380.80;;;;;;5038663;28;20084;-78
2021/08/04 04:55:17;;;;;;;14.52;8.43;;;487.30;2380.80;;;;;;5038934;28;20027;-76
2021/08/04 04:57:43;;;;;;;14.25;7.25;;;;;;;;;;5038324;28;20073;-79
2021/08/04 05:00:11;;;;;;;11.25;6.97;;;;;;;;;;5038446;28;20096;-77
2021/08/04 05:02:37;;;;;;;15.65;7.47;;;;;;;;;;5038457;28;20027;-79
2021/08/04 05:05:05;;;;;;;17.45;7.55;;;512.40;2380.80;;;;;;5038390;28;20075;-77
2021/08/04 05:07:31;;;;;;;17.50;8.73;;;512.40;2380.80;;;;;;5038274;28;20029;-77
2021/08/04 05:09:56;;;;;;;15.68;8.73;;;512.40;2380.80;;;;;;5038642;28;20432;-77
2021/08/04 05:12:22;;;;;;;17.60;8.57;;;512.30;2380.80;;;;;;5038361;28;20025;-77
2021/08/04 05:14:48;;;;;;;15.23;8.38;;;512.10;2380.80;;;;;;5038068;28;20024;-78
2021/08/04 05:17:14;;;;;;;13.00;7.88;;;512.30;2380.80;;;;;;5038442;28;20160;-78
2021/08/04 05:19:40;;;;;;;15.15;8.18;;;512.40;2380.80;;;;;;5038194;28;20021;-79
2021/08/04 05:22:07;;;;;;;13.13;8.52;;;512.60;2380.80;;;;;;5037879;28;20028;-78
2021/08/04 05:24:33;;;;;;;16.38;8.88;;;512.70;2380.80;;;;;;5038386;28;20029;-81
2021/08/04 05:26:58;;;;;;;15.68;9.38;;;512.70;2380.80;;;;;;5038112;28;20147;-77
2021/08/04 05:29:24;;;;;;;18.52;8.63;;;;;;;;;;5037893;28;20078;-78
2021/08/04 05:31:50;;;;;;;19.35;9.05;;;537.60;2406.40;;;;;;5037858;28;20514;-79
2021/08/04 05:34:19;;;;;;;20.42;10.38;;;537.60;2406.40;;;;;;5037588;28;20112;-78
2021/08/04 05:36:45;;;;;;;18.05;8.75;;;537.60;2406.40;;;;;;5037746;28;20021;-78
2021/08/04 05:39:11;;;;;;;23.20;9.48;;;538.20;2406.40;;;;;;5037742;28;20035;-80
2021/08/04 05:41:39;;;;;;;23.52;9.85;;;538.00;2406.40;;;;;;5037657;28;20119;-78
2021/08/04 05:44:05;;;;;;;13.80;7.78;;;537.80;2406.40;;;;;;5055256;28;20059;-80
2021/08/04 05:46:31;;;;;;;19.52;8.75;;;538.00;2406.40;;;;;;5055477;28;20344;-78
2021/08/04 05:48:57;;;;;;;16.13;8.30;;;538.00;2406.40;;;;;;5037611;28;20032;-77
2021/08/04 05:51:23;;;;;;;21.75;10.88;;;538.10;2406.40;;;;;;5055008;28;20021;-77
2021/08/04 05:53:49;;;;;;;15.48;9.20;;;538.20;2406.40;;;;;;5037637;28;20378;-81
2021/08/04 05:56:15;;;;;;;16.27;9.18;;;538.30;2406.40;;;;;;5037115;28;20108;-79
2021/08/04 05:58:40;;;;;;;15.35;8.45;;;538.40;2406.40;;;;;;5055643;28;20045;-80
2021/08/04 06:01:06;;;;;;;14.95;8.65;;;563.20;2432.00;;;;;;5037391;28;20044;-79
2021/08/04 06:03:33;;;;;;;17.90;9.25;;;538.40;2406.40;;;;;;5036994;28;20029;-79
2021/08/04 06:05:59;;;;;;;17.45;8.38;;;538.50;2406.40;;;;;;5055180;28;20171;-78
2021/08/04 06:08:25;;;;;;;15.27;7.63;;;563.20;2432.00;;;;;;5037212;28;20509;-77
2021/08/04 06:10:51;;;;;;;16.63;8.32;;;563.30;2432.00;;;;;;5055091;28;20029;-78
2021/08/04 06:13:16;;;;;;;16.40;7.55;;;563.20;2432.00;;;;;;5054766;28;20102;-78
2021/08/04 06:15:42;;;;;;;14.27;7.05;;;;;;;;;;5037192;28;20021;-76
2021/08/04 06:18:09;;;;;;;13.57;7.57;;;;;;;;;;5036776;28;20020;-77
2021/08/04 06:20:35;;;;;;;14.05;6.90;;;;;;;;;;5036985;28;20020;-77
2021/08/04 06:23:00;;;;;;;12.45;6.90;;;563.90;2432.00;;;;;;5036898;28;20115;-78
2021/08/04 06:25:26;;;;;;;14.70;7.15;;;;;;;;;;5036500;28;20056;-79
2021/08/04 06:27:54;;;;;;;12.77;6.38;;;;;;;;;;5054256;28;20017;-79
2021/08/04 06:30:21;;;;;;;15.57;6.25;;;;;;;;;;5036900;28;20017;-77
2021/08/04 06:32:47;;;;;;;17.83;7.55;;;;;;;;;;5054395;28;20017;-79
2021/08/04 06:35:13;;;;;;;13.73;6.07;;;;;;;;;;5036768;28;20020;-77
2021/08/04 06:37:39;;;;;;;16.30;7.55;;;589.50;2432.00;;;;;;5036688;28;20021;-77
2021/08/04 06:40:06;;;;;;;20.98;10.75;;;589.40;2432.00;;;;;;5036343;28;20032;-77
2021/08/04 06:42:32;;;;;;;20.75;10.88;;;589.60;2432.00;;;;;;5036401;28;20370;-79
2021/08/04 06:44:58;;;;;;;12.30;7.88;;;;;;;;;;5036565;28;20032;-76
2021/08/04 06:47:24;;;;;;;15.27;6.97;;;614.60;2432.00;;;;;;5053402;28;20025;-78
2021/08/04 06:49:49;;;;;;;12.65;7.25;;;614.50;2432.00;;;;;;5035555;28;20021;-79
2021/08/04 06:52:15;;;;;;;12.80;6.63;;;614.50;2432.00;;;;;;5035706;28;20032;-77
2021/08/04 06:54:41;;;;;;;20.15;6.38;;;614.60;2432.00;;;;;;5036233;28;20021;-78
2021/08/04 06:57:07;;;;;;;15.60;8.23;;;614.80;2432.00;;;;;;5036225;28;20445;-78
2021/08/04 06:59:33;;;;;;;19.38;8.30;;;614.80;2432.00;;;;;;5053780;28;20025;-76
2021/08/04 07:02:01;;;;;;;16.88;7.40;;;615.00;2432.00;;;;;;5036286;28;20112;-81
2021/08/04 07:04:30;;;;;;;14.80;7.40;;;615.20;2432.00;;;;;;5036254;28;20033;-76
2021/08/04 07:07:01;;;;;;;16.83;7.00;;;615.20;2432.00;;;;;;5053439;28;20429;-76
2021/08/04 07:09:27;;;;;;;14.63;6.97;;;640.10;2432.00;;;;;;5035917;28;20074;-77
2021/08/04 07:11:53;;;;;;;16.00;6.00;;;640.10;2432.00;;;;;;5036200;28;20051;-76
2021/08/04 07:14:20;;;;;;;12.85;6.72;;;640.40;2432.00;;;;;;5035620;28;20033;-76
2021/08/04 07:16:46;;;;;;;13.88;6.82;;;640.50;2432.00;;;;;;5053915;28;20048;-79
2021/08/04 07:19:13;;;;;;;19.58;7.25;;;640.60;2432.00;;;;;;5053144;28;20074;-79
2021/08/04 07:21:39;;;;;;;13.82;5.40;;;640.80;2432.00;;;;;;5054367;28;20024;-78
2021/08/04 07:24:09;;;;;;;14.98;6.60;;;665.60;2432.00;;;;;;5054999;28;20032;-76
2021/08/04 07:26:37;;;;;;;13.25;6.55;;;665.60;2432.00;;;;;;5054827;28;20077;-78
2021/08/04 07:29:03;;;;;;;18.98;6.05;;;665.70;2432.00;;;;;;5054654;28;20024;-77
2021/08/04 07:31:30;;;;;;;15.35;6.15;;;666.00;2432.00;;;;;;5072673;28;20366;-76
2021/08/04 07:33:56;;;;;;;17.45;6.75;;;640.90;2432.00;;;;;;5054900;28;20107;-79
2021/08/04 07:36:21;;;;;;;15.07;6.30;;;666.20;2432.00;;;;;;5032569;28;20116;-77
2021/08/04 07:38:48;;;;;;;15.05;6.20;;;666.30;2432.00;;;;;;5052559;28;20098;-76
2021/08/04 07:41:14;;;;;;;14.70;5.68;;;691.20;2432.00;;;;;;5033491;28;20447;-78
2021/08/04 07:43:39;;;;;;;18.73;7.20;;;691.30;2432.00;;;;;;5052021;28;20085;-78
2021/08/04 07:46:05;;;;;;;10.75;5.05;;;691.30;2432.00;;;;;;5052303;28;20040;-77
2021/08/04 07:48:33;;;;;;;18.83;5.72;;;691.40;2432.00;;;;;;5034294;28;20063;-76
2021/08/04 07:51:01;;;;;;;18.77;6.68;;;691.70;2432.00;;;;;;5034415;28;20522;-75
2021/08/04 07:53:27;;;;;;;11.27;5.57;;;691.80;2406.40;;;;;;5034094;28;20355;-75
2021/08/04 07:55:53;;;;;;;15.15;5.53;;;692.10;2355.20;;;;;;5034323;28;20166;-76
2021/08/04 07:58:19;;;;;;;13.60;5.13;;;716.90;2329.60;;;;;;5033955;28;20478;-75
2021/08/04 08:00:44;;;;;;;9.43;4.38;;;717.10;2201.60;;;;;;5034571;28;20074;-76
2021/08/04 08:03:10;;;;;;;12.02;5.05;;;717.00;2124.80;;;;;;5051496;28;20029;-75
2021/08/04 08:05:36;;;;;;;17.55;7.82;;;717.40;2150.40;;;;;;5051765;28;20170;-75
2021/08/04 08:08:05;;;;;;;12.27;6.88;;;717.40;2150.40;;;;;;5033955;28;20028;-76
2021/08/04 08:10:33;;;;;;;13.85;6.95;;;717.50;2150.40;;;;;;5051993;28;20027;-76
2021/08/04 08:12:59;;;;;;;10.85;5.65;;;717.50;2099.20;;;;;;5034506;28;20060;-77
2021/08/04 08:15:26;;;;;;;14.35;5.55;;;742.60;2124.80;;;;;;5033949;28;20028;-78
2021/08/04 08:17:52;;;;;;;12.00;5.50;;;717.70;2022.40;;;;;;5033941;28;20478;-77
2021/08/04 08:20:19;;;;;;;17.55;7.30;;;742.90;2073.60;;;;;;5034372;28;20032;-77
2021/08/04 08:22:46;;;;;;;16.58;6.57;;;743.00;2073.60;;;;;;5034235;28;20032;-78
2021/08/04 08:25:13;;;;;;;9.85;5.07;;;743.10;2099.20;;;;;;5034148;28;20029;-79
2021/08/04 08:27:40;;;;;;;11.13;5.85;;;743.10;2073.60;;;;;;5034284;28;20049;-76
2021/08/04 08:30:07;;;;;;;16.15;5.50;;;743.00;2073.60;;;;;;5034753;28;20021;-78
2021/08/04 08:32:33;;;;;;;14.13;6.63;;;743.20;2048.00;;;;;;5034931;28;20056;-78
2021/08/04 08:34:59;;;;;;;12.45;5.35;;;743.00;2073.60;;;;;;5035084;28;20049;-75
2021/08/04 08:37:25;;;;;;;11.10;5.20;;;742.90;2073.60;;;;;;5052612;28;20359;-75
2021/08/04 08:39:51;;;;;;;15.75;7.85;;;743.00;2073.60;;;;;;5034514;28;20032;-77
2021/08/04 08:42:19;;;;;;;13.65;7.75;;;743.30;2073.60;;;;;;5045793;28;20027;-76
2021/08/04 08:44:46;;;;;;;18.52;7.78;;;743.30;2073.60;;;;;;5040520;28;20076;-76
2021/08/04 08:47:12;;;;;;;13.95;7.55;;;768.40;2073.60;;;;;;5035150;28;20051;-75
2021/08/04 08:49:42;;;;;;;16.85;8.32;;;768.70;2022.40;;;;;;5035139;28;20017;-75
2021/08/04 08:52:08;;;;;;;19.40;12.52;;;768.90;2022.40;;;;;;5037088;28;20454;-75
2021/08/04 08:54:34;;;;;;;13.63;6.18;;;793.80;1996.80;;;;;;5038768;28;20021;-76
2021/08/04 08:57:00;;;;;;;16.27;7.45;;;793.60;1996.80;;;;;;5038076;28;20053;-75
2021/08/04 08:59:26;;;;;;;12.27;7.72;;;793.90;2022.40;;;;;;5038008;28;20024;-79
2021/08/04 09:01:52;;;;;;;12.82;8.10;;;794.10;2022.40;;;;;;5056203;28;20067;-78
2021/08/04 09:04:18;;;;;;;15.25;7.03;;;794.30;2022.40;;;;;;5037679;28;20032;-77
2021/08/04 09:06:48;;;;;;;11.38;6.60;;;794.50;1996.80;;;;;;5036216;28;20040;-78
2021/08/04 09:09:20;;;;;;;12.82;6.10;;;819.30;1971.20;;;;;;5054616;28;20049;-78
2021/08/04 09:11:53;;;;;;;15.27;5.72;;;819.30;1945.60;;;;;;5054671;28;20082;-77
2021/08/04 09:14:29;;;;;;;8.95;5.53;;;819.30;1945.60;;;;;;5055818;28;20025;-77
2021/08/04 09:17:13;;;;;;;11.18;5.18;;;819.40;1920.00;;;;;;5038844;28;20067;-76
2021/08/04 09:19:44;;;;;;;14.50;8.02;;;819.60;1920.00;;;;;;5056294;28;20426;-79
2021/08/04 09:22:24;;;;;;;15.32;7.30;;;819.70;1894.40;;;;;;5038129;28;20044;-78
2021/08/04 09:24:54;;;;;;;9.57;5.85;;;820.00;1920.00;;;;;;5038195;28;20033;-76
2021/08/04 09:27:36;;;;;;;17.98;7.65;;;844.80;1920.00;;;;;;5037678;28;20021;-78
2021/08/04 09:30:02;;;;;;;12.10;6.33;;;844.90;1894.40;;;;;;5038000;28;20032;-77
2021/08/04 09:32:29;;;;;;;14.38;6.07;;;845.20;1792.00;;;;;;5055879;28;20284;-77
2021/08/04 09:34:55;;;;;;;11.15;6.63;;;845.20;1766.40;;;;;;5037625;28;20060;-75
2021/08/04 09:37:21;;;;;;;11.40;5.85;;;844.90;1766.40;;;;;;5037809;28;20088;-75
2021/08/04 09:39:54;;;;;;;13.52;6.38;;;845.40;1715.20;;;;;;5037735;28;20028;-78
2021/08/04 09:42:20;;;;;;;10.30;4.78;;;845.70;1689.60;;;;;;5037325;28;20464;-76
2021/08/04 09:44:54;;;;;;;11.02;5.82;;;845.70;1612.80;;;;;;5037918;28;20051;-76
2021/08/04 09:47:20;;;;;;;15.32;6.90;;;845.70;1638.40;;;;;;5037401;28;20028;-77
2021/08/04 09:50:06;;;;;;;11.45;4.95;;;870.50;1689.60;;;;;;5037698;28;20047;-78
2021/08/04 09:52:33;;;;;;;11.85;6.72;;;870.50;1638.40;;;;;;5037555;28;20021;-75
2021/08/04 09:55:15;;;;;;;19.88;7.97;;;870.50;1638.40;;;;;;5037602;28;20106;-76
2021/08/04 09:57:44;;;;;;;11.35;6.53;;;870.70;1587.20;;;;;;5037139;28;20382;-77
2021/08/04 10:00:12;;;;;;;15.40;7.15;;;870.90;1561.60;;;;;;5037557;28;20134;-77
2021/08/04 10:02:38;;;;;;;16.50;6.95;;;870.90;1561.60;;;;;;5036205;28;20029;-77
2021/08/04 10:05:33;;;;;;;12.50;6.10;;;870.90;1561.60;;;;;;5038621;28;20075;-78
2021/08/04 10:08:12;;;;;;;12.68;5.50;;;871.00;1536.00;;;;;;5021354;28;20036;-76
2021/08/04 10:10:50;;;;;;;17.45;7.20;;;871.10;1484.80;;;;;;5037555;28;20024;-77
2021/08/04 10:13:21;;;;;;;14.27;6.00;;;896.00;1510.40;;;;;;5037254;28;20028;-78
2021/08/04 10:15:52;;;;;;;8.20;3.90;;;896.10;1433.60;;;;;;5037191;28;20083;-77
2021/08/04 10:18:23;;;;;;;12.50;4.55;;;896.10;1408.00;;;;;;5055089;28;20024;-76
2021/08/04 10:21:00;;;;;;;10.82;4.20;;;896.10;1408.00;;;;;;5037948;28;20052;-78
2021/08/04 10:23:29;;;;;;;10.75;5.25;;;896.20;1382.40;;;;;;5061819;28;20028;-76
2021/08/04 10:25:56;;;;;;;9.40;5.32;;;896.40;1408.00;;;;;;5063043;28;20017;-76
2021/08/04 10:28:24;;;;;;;13.93;5.55;;;896.70;1408.00;;;;;;5043011;28;20024;-76
2021/08/04 10:30:50;;;;;;;11.63;4.50;;;896.90;1408.00;;;;;;5058915;28;20021;-74
2021/08/04 10:33:16;;;;;;;11.05;5.38;;;921.70;1382.40;;;;;;5040801;28;20512;-74
2021/08/04 10:35:45;;;;;;;10.57;4.45;;;921.60;1382.40;;;;;;5041609;28;20116;-74
2021/08/04 10:38:20;;;;;;;11.00;4.78;;;922.00;1356.80;;;;;;5036973;28;20024;-75
2021/08/04 10:40:46;;;;;;;12.63;5.50;;;922.00;1382.40;;;;;;5054484;28;20021;-77
2021/08/04 10:43:39;;;;;;;15.85;6.30;;;921.80;1331.20;;;;;;5054067;28;20028;-76
2021/08/04 10:49:05;;;;;;;13.50;5.35;;;922.30;1356.80;;;;;;5054467;28;20029;-75
2021/08/04 10:51:37;;;;;;;11.73;4.65;;;922.50;1356.80;;;;;;5036194;28;20024;-75
2021/08/04 10:54:03;;;;;;;12.55;4.88;;;922.50;1305.60;;;;;;5036590;28;20037;-75
2021/08/04 10:56:31;;;;;;;7.57;4.03;;;922.50;1305.60;;;;;;5035919;28;20398;-75
2021/08/04 10:59:09;;;;;;;8.05;3.85;;;922.50;1305.60;;;;;;5054183;28;20139;-75
2021/08/04 11:01:48;;;;;;;8.02;3.58;;;947.20;1305.60;;;;;;5036222;28;20017;-74
2021/08/04 11:04:40;;;;;;;10.77;3.92;;;947.30;1305.60;;;;;;5053391;28;20063;-74
2021/08/04 11:07:08;;;;;;;9.95;4.05;;;947.30;1305.60;;;;;;5053619;28;20024;-73
2021/08/04 11:09:46;;;;;;;12.65;5.60;;;947.40;1305.60;;;;;;5036041;28;20035;-74
2021/08/04 11:12:15;;;;;;;8.65;4.30;;;922.00;1280.00;;;;;;5035722;28;20029;-75
2021/08/04 11:14:55;;;;;;;12.02;4.75;;;922.40;1280.00;;;;;;5035761;28;20119;-75
2021/08/04 11:17:31;;;;;;;13.40;6.25;;;947.40;1305.60;;;;;;5036021;28;20024;-75
2021/08/04 11:20:11;;;;;;;7.85;4.40;;;947.80;1280.00;;;;;;5035662;28;20021;-73
2021/08/04 11:22:37;;;;;;;11.30;5.77;;;948.10;1280.00;;;;;;5053817;28;20013;-71
2021/08/04 11:25:24;;;;;;;11.57;4.57;;;948.10;1280.00;;;;;;5035902;28;20542;-72
2021/08/04 11:27:53;;;;;;;11.85;3.75;;;947.80;1254.40;;;;;;5053377;28;20029;-75
2021/08/04 11:30:29;;;;;;;9.48;4.13;;;947.60;1254.40;;;;;;5035792;28;20082;-75
2021/08/04 11:33:29;;;;;;;8.90;4.20;;;947.80;1280.00;;;;;;5053023;28;20421;-75
2021/08/04 11:35:59;;;;;;;11.38;4.50;;;948.10;1280.00;;;;;;5035797;28;20060;-75
2021/08/04 11:38:43;;;;;;;10.35;3.92;;;972.80;1280.00;;;;;;5053593;28;20446;-76
2021/08/04 11:41:14;;;;;;;11.55;4.18;;;972.90;1280.00;;;;;;5035456;28;20024;-76
2021/08/04 11:43:40;;;;;;;9.15;3.83;;;973.10;1280.00;;;;;;5053436;28;20025;-76
2021/08/04 11:46:05;;;;;;;12.18;4.15;;;973.30;1280.00;;;;;;5053505;28;20028;-77
2021/08/04 11:48:51;;;;;;;13.75;3.70;;;973.20;1254.40;;;;;;5035357;28;20373;-78
2021/08/04 11:51:28;;;;;;;9.68;4.82;;;948.10;1254.40;;;;;;5035669;28;20020;-76
2021/08/04 11:53:55;;;;;;;14.75;7.50;;;948.10;1280.00;;;;;;5035367;28;20033;-77
2021/08/04 11:56:21;;;;;;;12.60;6.63;;;948.10;1254.40;;;;;;5035527;28;20462;-77
2021/08/04 11:58:46;;;;;;;15.30;5.15;;;973.10;1305.60;;;;;;5035024;28;20052;-76
2021/08/04 12:01:19;;;;;;;14.93;8.73;;;973.00;1280.00;;;;;;5052859;28;20024;-79
2021/08/04 12:03:46;;;;;;;27.67;6.50;;;973.00;1280.00;;;;;;5035649;28;20122;-77
2021/08/04 12:06:18;;;;;;;12.25;4.30;;;973.20;1280.00;;;;;;5035434;28;20025;-78
2021/08/04 12:08:44;;;;;;;11.93;4.63;;;973.40;1254.40;;;;;;5053020;28;20025;-78
2021/08/04 12:11:10;;;;;;;9.90;3.95;;;973.40;1254.40;;;;;;5035455;28;20067;-79
2021/08/04 12:13:36;;;;;;;14.18;4.38;;;973.60;1228.80;;;;;;5035548;28;20029;-78
2021/08/04 12:16:03;;;;;;;13.85;6.53;;;973.50;1254.40;;;;;;5052955;28;20389;-78
2021/08/04 12:18:29;;;;;;;15.90;5.80;;;973.40;1254.40;;;;;;5053547;28;20029;-77
2021/08/04 12:20:55;;;;;;;25.48;12.30;;;973.30;1280.00;;;;;;5035345;28;20025;-78
2021/08/04 12:23:23;;;;;;;18.10;10.25;;;948.10;1254.40;;;;;;5034833;28;20522;-77
2021/08/04 12:25:58;;;;;;;17.77;8.15;;;947.40;1280.00;;;;;;5035494;28;20028;-74
2021/08/04 12:28:29;;;;;;;23.85;10.95;;;922.50;1280.00;;;;;;5038819;28;20108;-77
2021/08/04 12:30:56;;;;;;;11.63;4.78;;;947.50;1305.60;;;;;;5039074;28;20060;-78
2021/08/04 12:33:23;;;;;;;14.90;4.82;;;947.80;1254.40;;;;;;5038878;28;20037;-75
2021/08/04 12:38:29;;;;;;;10.48;4.53;;;947.40;1228.80;;;;;;5056965;28;20028;-78
2021/08/04 12:40:57;;;;;;;11.52;4.07;;;948.10;1254.40;;;;;;5038967;28;20025;-78